CKN3 weather

CLOSED Kahntah Airport
Kahntah, British Columbia, Canada

Public forecast

Using degrees Celsius for public forecast. Weather courtesy of forecast.io.

Closest aviation weather report (METAR) to Kahntah Airport

Closest report is Fort Nelson Airport, 71.3 nm (132.1 km) NW. Retrieved 2019/10/15 02:00 UTC (24 minutes ago):

CYYE 150200Z 35004KT 15SM BKN046 02/M02 A3004 RMK SC7 SLP197

Closest aviation forecast (TAF) to Kahntah Airport

Closest forecast is Fort Nelson Airport, 71.3 nm (132.1 km) NW. Retrieved 2019-10-15 01:42 UTC (42 minutes ago):

TAF CYYE 150038Z 1501/1513 VRB03KT P6SM BKN040 FM150700 VRB03KT P6SM SCT050 BKN180 FM151200 07006KT P6SM -SN FEW020 OVC050 RMK NXT FCST BY 150700Z